Time;durP1;ratioP1;P1;durP2;ratioP2;P2;SDS_P1;SDS_P2;PMS_P1;PMS_P2;Temp;Humidity;BMP_temperature;BMP_pressure;BME280_temperature;BME280_humidity;BME280_pressure;Samples;Min_cycle;Max_cycle;Signal;HPM_P1;HPM_P2
2023/02/26 00:02:05;;;;;;;0.30;0.30;;;0.70;94.30;;;;;;5056465;28;20234;-69
2023/02/26 00:04:32;;;;;;;1.35;0.73;;;0.50;94.30;;;;;;5053929;28;20192;-68
2023/02/26 00:06:59;;;;;;;0.65;0.65;;;0.50;94.50;;;;;;5053457;28;20211;-68
2023/02/26 00:09:26;;;;;;;0.40;0.40;;;0.60;94.40;;;;;;5053823;28;20205;-68
2023/02/26 00:11:53;;;;;;;0.30;0.30;;;0.50;94.20;;;;;;5058200;28;20220;-68
2023/02/26 00:14:21;;;;;;;0.30;0.30;;;0.60;94.70;;;;;;5055222;28;20220;-68
2023/02/26 00:16:53;;;;;;;0.45;0.40;;;0.50;94.40;;;;;;5052758;28;21063;-68
2023/02/26 00:19:21;;;;;;;0.47;0.40;;;0.30;94.20;;;;;;5052438;28;20198;-68
2023/02/26 00:21:48;;;;;;;0.52;0.52;;;0.40;94.30;;;;;;5060027;28;20310;-68
2023/02/26 00:24:15;;;;;;;0.40;0.35;;;0.40;94.10;;;;;;5046885;28;20204;-66
2023/02/26 00:26:41;;;;;;;0.60;0.40;;;0.20;94.00;;;;;;5046102;28;20232;-67
2023/02/26 00:29:09;;;;;;;0.32;0.32;;;0.30;94.40;;;;;;5031960;28;20201;-66
2023/02/26 00:31:38;;;;;;;1.15;1.15;;;0.10;94.00;;;;;;5027031;28;20717;-68
2023/02/26 00:34:05;;;;;;;0.40;0.40;;;0.10;94.30;;;;;;5047430;28;20235;-67
2023/02/26 00:36:43;;;;;;;0.70;0.70;;;0.10;94.30;;;;;;5047370;28;20773;-67
2023/02/26 00:39:30;;;;;;;0.30;0.30;;;0.20;94.40;;;;;;5046458;28;20681;-67
2023/02/26 00:41:57;;;;;;;0.43;0.43;;;0.10;94.20;;;;;;5027714;28;20579;-68
2023/02/26 00:44:24;;;;;;;0.30;0.30;;;0.10;94.20;;;;;;5027343;28;20219;-66
2023/02/26 00:46:56;;;;;;;0.68;0.68;;;0.10;94.10;;;;;;5027687;28;20239;-68
2023/02/26 00:49:31;;;;;;;0.30;0.30;;;0.10;94.40;;;;;;5042566;28;20562;-66
2023/02/26 00:52:01;;;;;;;0.60;0.60;;;0.00;93.90;;;;;;5045557;28;20226;-67
2023/02/26 00:54:29;;;;;;;1.95;0.57;;;0.00;94.10;;;;;;5044606;28;20223;-67
2023/02/26 00:56:57;;;;;;;0.30;0.30;;;0.00;94.00;;;;;;5046226;28;20235;-66
2023/02/26 00:59:25;;;;;;;0.95;0.80;;;0.10;94.00;;;;;;5060486;28;20624;-66
2023/02/26 01:01:53;;;;;;;0.60;0.60;;;0.10;94.10;;;;;;5062742;28;20578;-67
2023/02/26 01:04:22;;;;;;;0.50;0.50;;;0.00;94.10;;;;;;5046778;28;20208;-66
2023/02/26 01:06:53;;;;;;;0.63;0.47;;;0.00;94.20;;;;;;5047003;28;20670;-67
2023/02/26 01:09:24;;;;;;;1.42;0.75;;;0.00;99.90;;;;;;5036066;28;20249;-66
2023/02/26 01:11:52;;;;;;;0.55;0.55;;;0.00;94.20;;;;;;5030135;28;20279;-68
2023/02/26 01:14:21;;;;;;;0.50;0.50;;;-0.10;93.70;;;;;;5037318;28;20551;-67
2023/02/26 01:16:55;;;;;;;2.35;0.52;;;-0.10;94.00;;;;;;5027186;28;20238;-67
2023/02/26 01:19:29;;;;;;;0.65;0.65;;;-0.10;94.10;;;;;;5026014;28;20207;-67
2023/02/26 01:22:03;;;;;;;0.30;0.30;;;0.00;94.30;;;;;;5027683;28;20228;-67
2023/02/26 01:24:31;;;;;;;0.98;0.98;;;0.00;94.00;;;;;;5027179;28;20197;-66
2023/02/26 01:26:58;;;;;;;0.40;0.40;;;0.00;94.00;;;;;;5026880;28;20592;-66
2023/02/26 01:29:25;;;;;;;0.30;0.30;;;0.00;99.90;;;;;;5041547;28;20243;-66
2023/02/26 01:32:00;;;;;;;0.50;0.50;;;-0.10;99.90;;;;;;5040069;28;20263;-68
2023/02/26 01:34:33;;;;;;;0.73;0.73;;;-0.40;99.90;;;;;;5026794;28;20235;-66
2023/02/26 01:37:05;;;;;;;0.30;0.20;;;0.10;94.00;;;;;;5026689;28;20308;-67
2023/02/26 01:39:39;;;;;;;0.40;0.40;;;0.00;94.00;;;;;;5040585;28;20229;-66
2023/02/26 01:42:15;;;;;;;0.40;0.40;;;0.00;94.10;;;;;;5066501;28;20557;-65
2023/02/26 01:44:48;;;;;;;0.60;0.60;;;-0.40;99.60;;;;;;5045958;28;20200;-66
2023/02/26 01:47:23;;;;;;;1.90;1.35;;;-0.30;93.90;;;;;;5046716;28;20220;-66
2023/02/26 01:49:50;;;;;;;1.33;0.93;;;-0.40;93.80;;;;;;5027297;28;20204;-66
2023/02/26 01:52:59;;;;;;;0.52;0.52;;;-0.20;99.90;;;;;;5028844;28;20232;-67
2023/02/26 01:55:28;;;;;;;0.70;0.50;;;-0.30;93.90;;;;;;5019008;28;20258;-66
2023/02/26 01:57:59;;;;;;;0.60;0.60;;;-0.40;94.20;;;;;;5036552;28;20192;-68
2023/02/26 02:00:25;;;;;;;0.60;0.60;;;-0.30;94.20;;;;;;5070098;28;20276;-66
2023/02/26 02:02:54;;;;;;;0.65;0.45;;;0.00;99.90;;;;;;5058243;28;20666;-68
2023/02/26 02:05:26;;;;;;;0.50;0.50;;;-0.40;93.90;;;;;;5048276;28;20215;-67
2023/02/26 02:07:54;;;;;;;0.60;0.60;;;-0.60;94.00;;;;;;5049252;28;20200;-68
2023/02/26 02:10:21;;;;;;;0.50;0.50;;;-0.60;94.20;;;;;;5032893;28;20200;-66
2023/02/26 02:12:56;;;;;;;0.68;0.55;;;-0.40;99.90;;;;;;5031532;28;20224;-66
2023/02/26 02:15:30;;;;;;;0.38;0.38;;;-0.50;94.10;;;;;;5044247;28;20228;-66
2023/02/26 02:18:09;;;;;;;2.97;2.25;;;-0.70;94.00;;;;;;5029448;28;20200;-68
2023/02/26 02:21:08;;;;;;;1.05;1.05;;;-0.60;94.30;;;;;;5028969;28;20256;-66
2023/02/26 02:23:43;;;;;;;0.40;0.40;;;-0.60;94.40;;;;;;5039181;28;20200;-66
2023/02/26 02:26:42;;;;;;;0.38;0.38;;;-0.70;94.20;;;;;;5049101;28;20248;-67
2023/02/26 02:29:28;;;;;;;0.40;0.40;;;-0.90;94.10;;;;;;5036984;28;20213;-66
2023/02/26 02:31:58;;;;;;;0.50;0.50;;;-0.90;94.30;;;;;;5032030;28;20677;-68
2023/02/26 02:34:33;;;;;;;0.50;0.50;;;-0.80;94.60;;;;;;5049709;28;20242;-66
2023/02/26 02:37:05;;;;;;;0.60;0.60;;;-0.80;94.50;;;;;;5049123;28;20238;-66
2023/02/26 02:39:40;;;;;;;1.30;0.73;;;-0.80;94.50;;;;;;5043056;28;20214;-66
2023/02/26 02:42:17;;;;;;;1.40;1.05;;;-0.80;94.70;;;;;;5063241;28;20728;-67
2023/02/26 02:44:51;;;;;;;0.50;0.50;;;-0.80;94.50;;;;;;5049363;28;20242;-66
2023/02/26 02:47:24;;;;;;;0.65;0.65;;;-0.90;94.30;;;;;;5048886;28;20226;-67
2023/02/26 02:49:58;;;;;;;0.73;0.73;;;-0.70;94.20;;;;;;5048810;28;20576;-66
2023/02/26 02:52:31;;;;;;;0.88;0.88;;;-0.80;94.20;;;;;;5045680;28;20246;-67
2023/02/26 02:55:05;;;;;;;0.75;0.60;;;-0.80;94.40;;;;;;5048848;28;20251;-67
2023/02/26 02:57:38;;;;;;;1.00;1.00;;;-0.80;94.60;;;;;;5048450;28;20227;-66
2023/02/26 03:00:10;;;;;;;0.55;0.50;;;-0.80;94.60;;;;;;5068295;28;20203;-68
2023/02/26 03:02:47;;;;;;;0.40;0.40;;;-0.80;98.30;;;;;;5055727;28;20192;-67
2023/02/26 03:05:14;;;;;;;0.60;0.60;;;-0.90;94.50;;;;;;5049213;28;20473;-66
2023/02/26 03:07:47;;;;;;;0.40;0.40;;;-0.90;94.30;;;;;;5048639;28;20207;-67
2023/02/26 03:10:14;;;;;;;0.63;0.63;;;-1.00;94.50;;;;;;5048496;28;20222;-68
2023/02/26 03:12:40;;;;;;;0.50;0.50;;;-1.10;94.70;;;;;;5044117;28;20184;-67
2023/02/26 03:15:09;;;;;;;0.60;0.60;;;-1.10;95.00;;;;;;5048949;28;20262;-67
2023/02/26 03:17:49;;;;;;;0.40;0.40;;;-1.10;94.90;;;;;;5048730;28;20266;-67
2023/02/26 03:20:24;;;;;;;0.40;0.40;;;-1.20;94.90;;;;;;5027028;28;20208;-68
2023/02/26 03:23:04;;;;;;;0.30;0.30;;;-1.30;95.00;;;;;;5029052;28;20192;-68
2023/02/26 03:25:41;;;;;;;0.40;0.40;;;-1.20;95.30;;;;;;5028905;28;20225;-67
2023/02/26 03:28:16;;;;;;;0.40;0.40;;;-1.20;95.20;;;;;;5033865;28;20249;-67
2023/02/26 03:30:48;;;;;;;0.70;0.60;;;-1.30;95.10;;;;;;5048050;28;20234;-68
2023/02/26 03:33:22;;;;;;;1.02;0.90;;;-1.20;95.00;;;;;;5037137;28;20294;-68
2023/02/26 03:36:00;;;;;;;0.55;0.55;;;-1.20;94.40;;;;;;5028693;28;20326;-67
2023/02/26 03:38:40;;;;;;;0.50;0.50;;;-1.20;94.70;;;;;;5030095;28;20287;-68
2023/02/26 03:41:12;;;;;;;0.40;0.40;;;-1.20;95.00;;;;;;5062566;28;20649;-68
2023/02/26 03:43:45;;;;;;;0.40;0.40;;;-1.10;94.90;;;;;;5063836;28;20279;-68
2023/02/26 03:46:19;;;;;;;0.32;0.32;;;-1.30;99.90;;;;;;5048434;28;20243;-68
2023/02/26 03:48:50;;;;;;;0.50;0.50;;;-1.30;95.00;;;;;;5047464;28;20254;-68
2023/02/26 03:51:20;;;;;;;0.30;0.30;;;-1.10;95.10;;;;;;5048264;28;20230;-68
2023/02/26 03:53:51;;;;;;;0.73;0.73;;;-1.10;99.90;;;;;;5042347;28;20196;-67
2023/02/26 03:56:25;;;;;;;0.70;0.70;;;-1.20;94.90;;;;;;5028314;28;20236;-67
2023/02/26 03:58:53;;;;;;;0.40;0.40;;;-1.10;94.90;;;;;;5041341;28;20250;-67
2023/02/26 04:01:25;;;;;;;0.40;0.40;;;-1.20;94.80;;;;;;5048034;28;20232;-68
2023/02/26 04:04:00;;;;;;;1.30;0.80;;;-1.30;94.60;;;;;;5043071;28;20201;-67
2023/02/26 04:06:27;;;;;;;0.50;0.50;;;-1.40;94.80;;;;;;5028162;28;20271;-67
2023/02/26 04:08:55;;;;;;;0.40;0.40;;;-1.30;95.00;;;;;;5032805;28;20191;-67
2023/02/26 04:11:22;;;;;;;0.30;0.30;;;-1.50;94.80;;;;;;5047638;28;20231;-67
2023/02/26 04:13:49;;;;;;;0.30;0.30;;;-1.40;95.10;;;;;;5027861;28;20282;-68
2023/02/26 04:16:17;;;;;;;1.05;0.85;;;-1.40;95.20;;;;;;5027805;28;20240;-67
2023/02/26 04:18:44;;;;;;;0.88;0.80;;;-1.50;95.20;;;;;;5036684;28;20211;-68
2023/02/26 04:21:13;;;;;;;0.40;0.40;;;-1.60;95.20;;;;;;5046329;28;20638;-67
2023/02/26 04:23:41;;;;;;;0.52;0.52;;;-1.60;95.30;;;;;;5033073;28;20196;-68
2023/02/26 04:26:07;;;;;;;0.50;0.50;;;-0.90;99.90;;;;;;5027698;28;20224;-67
2023/02/26 04:28:36;;;;;;;0.82;0.82;;;;;;;;;;5027961;28;20616;-67
2023/02/26 04:31:03;;;;;;;0.40;0.40;;;-1.60;95.30;;;;;;5027433;28;20223;-67
2023/02/26 04:33:32;;;;;;;0.30;0.30;;;-1.60;95.30;;;;;;5042803;28;20893;-67
2023/02/26 04:35:58;;;;;;;0.80;0.80;;;-1.50;95.60;;;;;;5047419;28;20252;-67
2023/02/26 04:38:27;;;;;;;0.40;0.40;;;-1.50;95.50;;;;;;5046303;28;20668;-66
2023/02/26 04:40:54;;;;;;;0.55;0.55;;;-1.40;95.50;;;;;;5055909;28;20230;-67
2023/02/26 04:43:21;;;;;;;0.90;0.90;;;-1.70;99.90;;;;;;5051126;28;20234;-68
2023/02/26 04:45:49;;;;;;;0.60;0.60;;;-1.90;99.90;;;;;;5047142;28;20305;-68
2023/02/26 04:48:16;;;;;;;0.45;0.45;;;-1.30;99.90;;;;;;5029444;28;20195;-68
2023/02/26 04:50:43;;;;;;;0.60;0.60;;;-1.80;96.00;;;;;;5027425;28;20226;-68
2023/02/26 04:53:10;;;;;;;2.15;0.60;;;-1.80;96.30;;;;;;5027425;28;20218;-67
2023/02/26 04:55:39;;;;;;;0.60;0.60;;;-2.10;99.80;;;;;;5046625;28;20233;-67
2023/02/26 04:58:06;;;;;;;0.40;0.40;;;-1.80;96.40;;;;;;5050164;28;20207;-67
2023/02/26 05:00:34;;;;;;;0.40;0.40;;;-1.50;99.90;;;;;;5067092;28;20249;-66
2023/02/26 05:03:01;;;;;;;0.68;0.68;;;-1.50;99.90;;;;;;5053393;28;20250;-67
2023/02/26 05:05:28;;;;;;;0.50;0.50;;;;;;;;;;5047418;28;20242;-67
2023/02/26 05:07:55;;;;;;;0.30;0.30;;;-1.60;95.20;;;;;;5047511;28;20928;-67
2023/02/26 05:10:22;;;;;;;0.60;0.52;;;-1.60;95.70;;;;;;5028178;28;20203;-67
2023/02/26 05:12:50;;;;;;;0.88;0.88;;;-1.50;95.70;;;;;;5036665;28;20214;-68
2023/02/26 05:15:17;;;;;;;0.40;0.40;;;-1.50;95.60;;;;;;5047360;28;20245;-67
2023/02/26 05:17:44;;;;;;;0.50;0.50;;;-1.40;95.60;;;;;;5045969;28;20200;-67
2023/02/26 05:20:12;;;;;;;0.70;0.70;;;-1.60;95.60;;;;;;5025798;28;20199;-67
2023/02/26 05:22:39;;;;;;;0.70;0.70;;;-1.60;95.90;;;;;;5028557;28;20216;-67
2023/02/26 05:25:07;;;;;;;0.40;0.40;;;-1.70;96.10;;;;;;5047730;28;20225;-68
2023/02/26 05:27:34;;;;;;;0.30;0.30;;;-1.70;99.90;;;;;;5049930;28;20207;-67
2023/02/26 05:30:02;;;;;;;0.73;0.73;;;-1.70;96.30;;;;;;5031010;28;20208;-67
2023/02/26 05:32:29;;;;;;;0.45;0.45;;;-1.60;96.40;;;;;;5037449;28;20800;-68
2023/02/26 05:34:56;;;;;;;0.40;0.40;;;-1.60;96.00;;;;;;5051308;28;20674;-68
2023/02/26 05:37:23;;;;;;;0.30;0.30;;;-1.70;95.80;;;;;;5050426;28;20995;-68
2023/02/26 05:39:50;;;;;;;0.47;0.47;;;-1.70;95.80;;;;;;5055127;28;20193;-68
2023/02/26 05:42:16;;;;;;;0.40;0.40;;;-1.60;95.90;;;;;;5054466;28;20223;-67
2023/02/26 05:44:43;;;;;;;0.75;0.50;;;-1.70;96.00;;;;;;5051226;28;20540;-67
2023/02/26 05:47:11;;;;;;;3.22;1.25;;;-1.70;96.00;;;;;;5050635;28;20230;-68
2023/02/26 05:49:38;;;;;;;0.40;0.40;;;-1.70;96.00;;;;;;5033693;28;20200;-67
2023/02/26 05:52:05;;;;;;;0.80;0.80;;;-1.70;96.00;;;;;;5032002;28;20227;-67
2023/02/26 05:54:32;;;;;;;0.40;0.40;;;-1.80;95.80;;;;;;5049966;28;20669;-68
2023/02/26 05:56:58;;;;;;;0.30;0.30;;;-1.80;96.00;;;;;;5050171;28;20705;-67
2023/02/26 05:59:25;;;;;;;0.50;0.50;;;-1.90;96.10;;;;;;5063253;28;20981;-67
2023/02/26 06:01:52;;;;;;;0.73;0.60;;;-1.80;96.30;;;;;;5067481;28;20273;-67
2023/02/26 06:04:20;;;;;;;0.52;0.52;;;-1.80;96.40;;;;;;5050520;28;20204;-67
2023/02/26 06:06:47;;;;;;;0.50;0.50;;;-1.80;96.20;;;;;;5050117;28;20249;-67
2023/02/26 06:09:14;;;;;;;1.02;0.68;;;-1.80;96.10;;;;;;5040560;28;20196;-66
2023/02/26 06:11:41;;;;;;;1.00;1.00;;;;;;;;;;5030455;28;20224;-68
2023/02/26 06:14:08;;;;;;;0.73;0.73;;;-1.70;95.90;;;;;;5050193;28;20700;-67
2023/02/26 06:16:35;;;;;;;0.40;0.40;;;-1.80;99.90;;;;;;5050201;28;20242;-67
2023/02/26 06:19:02;;;;;;;0.43;0.43;;;-1.90;96.30;;;;;;5049671;28;20203;-68
2023/02/26 06:21:30;;;;;;;0.40;0.40;;;-1.90;96.30;;;;;;5048785;28;20234;-68
2023/02/26 06:23:57;;;;;;;0.40;0.40;;;-1.90;96.50;;;;;;5047939;28;20202;-67
2023/02/26 06:26:24;;;;;;;0.80;0.80;;;-1.90;96.80;;;;;;5049812;28;20234;-67
2023/02/26 06:28:51;;;;;;;0.40;0.40;;;-1.90;96.90;;;;;;5048364;28;20258;-68
2023/02/26 06:31:18;;;;;;;0.82;0.55;;;;;;;;;;5049796;28;20227;-67
2023/02/26 06:33:45;;;;;;;0.40;0.40;;;-2.20;96.70;;;;;;5032554;28;20571;-67
2023/02/26 06:36:11;;;;;;;0.65;0.65;;;-2.10;97.20;;;;;;5028894;28;20245;-67
2023/02/26 06:38:40;;;;;;;0.60;0.60;;;-1.60;99.90;;;;;;5031951;28;20639;-66
2023/02/26 06:41:08;;;;;;;0.50;0.50;;;-2.10;97.30;;;;;;5065134;28;20254;-68
2023/02/26 06:43:35;;;;;;;0.40;0.40;;;-2.10;97.30;;;;;;5051751;28;20205;-67
2023/02/26 06:46:01;;;;;;;0.45;0.45;;;-2.00;97.50;;;;;;5049572;28;20225;-68
2023/02/26 06:48:28;;;;;;;0.82;0.82;;;-1.80;97.40;;;;;;5040550;28;20199;-67
2023/02/26 06:50:55;;;;;;;0.75;0.60;;;-1.70;97.20;;;;;;5028926;28;20230;-67
2023/02/26 06:53:22;;;;;;;0.68;0.68;;;-1.60;99.90;;;;;;5040288;28;20209;-67
2023/02/26 06:55:52;;;;;;;0.40;0.40;;;-1.60;97.20;;;;;;5049475;28;20251;-67
2023/02/26 06:58:20;;;;;;;1.30;1.23;;;-1.70;99.90;;;;;;5051204;28;20195;-67
2023/02/26 07:00:46;;;;;;;1.10;0.75;;;-1.60;96.90;;;;;;5069075;28;20230;-67
2023/02/26 07:03:15;;;;;;;0.65;0.65;;;-1.60;96.90;;;;;;5054411;28;20207;-67
2023/02/26 07:05:42;;;;;;;0.40;0.40;;;-1.50;96.90;;;;;;5049261;28;20228;-67
2023/02/26 07:08:09;;;;;;;0.50;0.50;;;-1.40;96.80;;;;;;5049391;28;20207;-67
2023/02/26 07:10:37;;;;;;;0.40;0.40;;;-1.50;96.70;;;;;;5030461;28;20230;-67
2023/02/26 07:13:05;;;;;;;1.10;1.08;;;-1.40;96.70;;;;;;5040617;28;20210;-66
2023/02/26 07:15:32;;;;;;;3.13;2.97;;;-1.40;96.80;;;;;;5048958;28;20772;-67
2023/02/26 07:17:59;;;;;;;2.90;2.22;;;-1.60;99.90;;;;;;5043507;28;20188;-68
2023/02/26 07:20:27;;;;;;;1.52;1.40;;;-1.40;96.70;;;;;;5027729;28;20220;-67
2023/02/26 07:22:53;;;;;;;0.40;0.40;;;-1.30;96.80;;;;;;5032552;28;20196;-67
2023/02/26 07:25:20;;;;;;;0.60;0.60;;;-1.20;99.90;;;;;;5048432;28;20673;-67
2023/02/26 07:27:47;;;;;;;1.60;1.55;;;-1.20;96.30;;;;;;5045132;28;20710;-67
2023/02/26 07:30:16;;;;;;;0.50;0.50;;;-1.00;96.50;;;;;;5028274;28;20213;-68
2023/02/26 07:32:43;;;;;;;2.22;1.80;;;;;;;;;;5037239;28;20207;-67
2023/02/26 07:35:11;;;;;;;0.93;0.57;;;-1.20;96.10;;;;;;5048857;28;20210;-66
2023/02/26 07:37:38;;;;;;;0.90;0.90;;;;;;;;;;5048680;28;20218;-67
2023/02/26 07:40:06;;;;;;;0.30;0.30;;;-1.10;96.40;;;;;;5044480;28;20203;-67
2023/02/26 07:42:33;;;;;;;0.60;0.60;;;-1.10;96.60;;;;;;5044637;28;20222;-68
2023/02/26 07:45:00;;;;;;;6.28;1.15;;;-1.10;96.70;;;;;;5041805;28;20208;-68
2023/02/26 07:47:29;;;;;;;1.00;0.95;;;-1.10;96.50;;;;;;5028750;28;20235;-67
2023/02/26 07:49:56;;;;;;;0.70;0.70;;;-0.80;96.80;;;;;;5027964;28;20491;-67
2023/02/26 07:52:23;;;;;;;0.38;0.38;;;-0.90;96.30;;;;;;5027990;28;20219;-67
2023/02/26 07:54:50;;;;;;;0.90;0.85;;;-0.70;96.20;;;;;;5027248;28;20456;-67
2023/02/26 07:57:17;;;;;;;1.35;1.25;;;-0.50;99.90;;;;;;5028241;28;20765;-66
2023/02/26 07:59:44;;;;;;;1.88;1.00;;;;;;;;;;5059038;28;21677;-67
2023/02/26 08:02:11;;;;;;;0.90;0.90;;;-0.70;99.90;;;;;;5063160;28;20748;-67
2023/02/26 08:04:39;;;;;;;0.30;0.30;;;-0.90;95.30;;;;;;5048241;28;20211;-68
2023/02/26 08:07:06;;;;;;;1.67;1.58;;;-0.80;99.90;;;;;;5047858;28;20247;-68
2023/02/26 08:09:33;;;;;;;0.60;0.60;;;-0.40;99.90;;;;;;5046583;28;20199;-67
2023/02/26 08:11:59;;;;;;;1.13;1.10;;;-0.50;99.90;;;;;;5043584;28;20224;-68
2023/02/26 08:14:26;;;;;;;2.13;1.88;;;-0.60;99.90;;;;;;5027500;28;20749;-67
2023/02/26 08:16:53;;;;;;;0.77;0.77;;;-0.60;99.90;;;;;;5030540;28;20232;-67
2023/02/26 08:19:20;;;;;;;0.90;0.90;;;-0.50;99.90;;;;;;5032994;28;20766;-68
2023/02/26 08:21:48;;;;;;;0.50;0.50;;;-0.40;97.90;;;;;;5027663;28;20224;-67
2023/02/26 08:24:15;;;;;;;0.50;0.50;;;-0.20;99.90;;;;;;5041727;28;20682;-67
2023/02/26 08:26:42;;;;;;;0.95;0.95;;;-0.70;99.90;;;;;;5046933;28;20234;-67
2023/02/26 08:29:09;;;;;;;0.35;0.35;;;0.10;99.90;;;;;;5032573;28;20977;-68
2023/02/26 08:31:36;;;;;;;2.55;1.73;;;;;;;;;;5026323;28;20231;-67
2023/02/26 08:34:03;;;;;;;1.00;1.00;;;-0.10;96.90;;;;;;5034126;28;20204;-68
2023/02/26 08:36:30;;;;;;;0.40;0.40;;;0.00;97.50;;;;;;5047474;28;20258;-68
2023/02/26 08:38:58;;;;;;;0.40;0.40;;;0.50;99.90;;;;;;5042335;28;20203;-68
2023/02/26 08:41:26;;;;;;;0.40;0.40;;;0.50;99.90;;;;;;5052878;28;20215;-68
2023/02/26 08:43:53;;;;;;;0.68;0.68;;;0.80;99.90;;;;;;5028511;28;20213;-68
2023/02/26 08:46:20;;;;;;;0.73;0.73;;;0.50;95.70;;;;;;5027474;28;20239;-67
2023/02/26 08:48:46;;;;;;;0.70;0.70;;;0.80;94.90;;;;;;5038499;28;20198;-68
2023/02/26 08:51:13;;;;;;;5.90;1.50;;;1.30;99.90;;;;;;5046307;28;20748;-67
2023/02/26 08:53:40;;;;;;;0.50;0.45;;;0.50;99.80;;;;;;5045293;28;20204;-68
2023/02/26 08:56:08;;;;;;;0.50;0.50;;;0.50;95.60;;;;;;5042684;28;20240;-68
2023/02/26 08:58:35;;;;;;;0.47;0.47;;;0.40;96.20;;;;;;5044742;28;20203;-68
2023/02/26 09:01:02;;;;;;;0.40;0.35;;;0.20;95.90;;;;;;5030931;28;21028;-68
2023/02/26 09:03:29;;;;;;;1.00;0.60;;;0.30;95.50;;;;;;5044422;28;20202;-68
2023/02/26 09:05:55;;;;;;;0.30;0.30;;;0.10;95.30;;;;;;5053705;28;20228;-68
2023/02/26 09:08:22;;;;;;;2.38;0.60;;;0.20;99.90;;;;;;5037970;28;20185;-68
2023/02/26 09:10:49;;;;;;;0.45;0.45;;;0.10;95.00;;;;;;5062567;28;20630;-68
2023/02/26 09:13:18;;;;;;;0.40;0.40;;;0.10;99.90;;;;;;5059648;28;20196;-68
2023/02/26 09:15:45;;;;;;;1.25;0.68;;;;;;;;;;5061711;28;20237;-68
2023/02/26 09:18:14;;;;;;;2.17;0.75;;;0.30;95.60;;;;;;5061401;28;20271;-69
2023/02/26 09:20:43;;;;;;;0.50;0.50;;;0.30;95.60;;;;;;5049379;28;20266;-71
2023/02/26 09:23:10;;;;;;;0.38;0.38;;;0.70;99.90;;;;;;5056384;28;20208;-68
2023/02/26 09:25:37;;;;;;;0.50;0.50;;;0.10;96.00;;;;;;5061223;28;20319;-69
2023/02/26 09:28:04;;;;;;;0.50;0.50;;;0.30;96.30;;;;;;5060903;28;20248;-68
2023/02/26 09:30:33;;;;;;;2.05;1.30;;;0.40;95.20;;;;;;5058592;28;20223;-68
2023/02/26 09:33:00;;;;;;;0.82;0.82;;;0.50;95.40;;;;;;5051700;28;20200;-68
2023/02/26 09:35:26;;;;;;;0.95;0.95;;;0.50;99.90;;;;;;5059363;28;20861;-68
2023/02/26 09:37:53;;;;;;;2.13;2.03;;;0.30;99.90;;;;;;5059204;28;20219;-67
2023/02/26 09:40:29;;;;;;;0.50;0.50;;;0.40;94.90;;;;;;5053330;28;20199;-68
2023/02/26 09:43:28;;;;;;;0.45;0.45;;;0.40;99.90;;;;;;5055307;28;20305;-67
2023/02/26 09:46:00;;;;;;;1.30;0.95;;;0.30;94.20;;;;;;5038141;28;20640;-68
2023/02/26 09:48:28;;;;;;;0.40;0.40;;;0.30;95.40;;;;;;5057843;28;20199;-67
2023/02/26 09:50:58;;;;;;;0.40;0.40;;;0.30;95.40;;;;;;5060759;28;20231;-67
2023/02/26 09:53:30;;;;;;;0.30;0.30;;;0.30;94.90;;;;;;5059799;28;20278;-67
2023/02/26 09:56:01;;;;;;;0.30;0.25;;;0.40;94.50;;;;;;5060654;28;20278;-67
2023/02/26 09:58:30;;;;;;;0.55;0.55;;;0.30;94.20;;;;;;5059308;28;20227;-67
2023/02/26 10:01:10;;;;;;;0.40;0.30;;;0.30;94.10;;;;;;5061576;28;20298;-67
2023/02/26 10:03:59;;;;;;;0.45;0.45;;;0.30;94.50;;;;;;5043642;28;20589;-68
2023/02/26 10:06:29;;;;;;;0.70;0.70;;;0.40;94.90;;;;;;5051703;28;20773;-68
2023/02/26 10:09:24;;;;;;;0.35;0.35;;;0.50;95.10;;;;;;5072786;28;20199;-67
2023/02/26 10:11:57;;;;;;;0.30;0.30;;;0.60;94.80;;;;;;5055826;28;20845;-67
2023/02/26 10:14:28;;;;;;;0.50;0.50;;;0.50;94.80;;;;;;5049125;28;20202;-66
2023/02/26 10:17:00;;;;;;;0.45;0.45;;;0.50;95.00;;;;;;5049747;28;20247;-68
2023/02/26 10:19:30;;;;;;;0.30;0.30;;;0.40;95.00;;;;;;5034099;28;20201;-67
2023/02/26 10:22:00;;;;;;;0.40;0.40;;;0.40;94.60;;;;;;5029850;28;20227;-67
2023/02/26 10:24:46;;;;;;;0.40;0.40;;;0.50;94.60;;;;;;5047096;28;20208;-67
2023/02/26 10:27:17;;;;;;;0.73;0.73;;;0.50;94.60;;;;;;5050018;28;20315;-67
2023/02/26 10:29:52;;;;;;;0.30;0.30;;;0.50;94.30;;;;;;5029818;28;20298;-67
2023/02/26 10:32:26;;;;;;;0.43;0.43;;;0.40;94.60;;;;;;5034499;28;20214;-67
2023/02/26 10:34:57;;;;;;;0.73;0.73;;;0.30;94.20;;;;;;5031399;28;20203;-67
2023/02/26 10:37:33;;;;;;;0.50;0.50;;;0.30;94.80;;;;;;5029533;28;20333;-67
2023/02/26 10:40:09;;;;;;;0.45;0.45;;;0.40;94.80;;;;;;5050628;28;20211;-67
2023/02/26 10:42:39;;;;;;;0.38;0.38;;;0.40;95.10;;;;;;5047626;28;20199;-69
2023/02/26 10:45:22;;;;;;;0.38;0.38;;;0.40;95.00;;;;;;5046572;28;20578;-69
2023/02/26 10:48:01;;;;;;;0.30;0.20;;;0.40;95.10;;;;;;5046448;28;20193;-68
2023/02/26 10:50:29;;;;;;;0.40;0.40;;;0.40;95.00;;;;;;5030393;28;20220;-67
2023/02/26 10:52:57;;;;;;;0.82;0.82;;;0.40;94.70;;;;;;5029632;28;20667;-68
2023/02/26 10:55:36;;;;;;;1.13;0.52;;;0.50;99.90;;;;;;5029534;28;20224;-68
2023/02/26 10:58:06;;;;;;;0.40;0.40;;;0.30;94.70;;;;;;5054518;28;20235;-68
2023/02/26 11:00:35;;;;;;;0.70;0.43;;;1.00;99.30;;;;;;5060569;28;20224;-68
2023/02/26 11:03:05;;;;;;;0.30;0.30;;;0.50;94.20;;;;;;5056240;28;20294;-68
2023/02/26 11:05:36;;;;;;;0.40;0.40;;;0.70;94.00;;;;;;5048627;28;20227;-70
2023/02/26 11:08:09;;;;;;;0.35;0.35;;;0.70;93.90;;;;;;5048953;28;20212;-69
2023/02/26 11:10:43;;;;;;;0.75;0.70;;;0.80;94.30;;;;;;5048085;28;20220;-69
2023/02/26 11:13:11;;;;;;;0.55;0.55;;;0.80;94.80;;;;;;5036227;28;20234;-68
2023/02/26 11:15:40;;;;;;;0.90;0.90;;;0.90;94.50;;;;;;5028666;28;20328;-68
2023/02/26 11:18:15;;;;;;;0.40;0.40;;;0.80;93.90;;;;;;5031777;28;20228;-69
2023/02/26 11:20:44;;;;;;;0.52;0.52;;;0.90;93.90;;;;;;5048864;28;20227;-68
2023/02/26 11:23:24;;;;;;;0.40;0.40;;;0.90;94.80;;;;;;5038679;28;20283;-70
2023/02/26 11:26:01;;;;;;;0.38;0.38;;;1.00;96.60;;;;;;5039279;28;20584;-69
2023/02/26 11:28:31;;;;;;;0.30;0.30;;;1.10;94.00;;;;;;5047088;28;20199;-69
2023/02/26 11:31:01;;;;;;;0.60;0.40;;;1.20;93.30;;;;;;5047755;28;20601;-69
2023/02/26 11:33:38;;;;;;;0.55;0.55;;;1.30;93.00;;;;;;5032781;28;20196;-69
2023/02/26 11:36:11;;;;;;;0.50;0.50;;;1.10;92.70;;;;;;5028126;28;20330;-69
2023/02/26 11:38:38;;;;;;;0.88;0.63;;;1.10;93.60;;;;;;5030885;28;20227;-69
2023/02/26 11:41:06;;;;;;;0.40;0.40;;;1.00;93.30;;;;;;5060052;28;20758;-69
2023/02/26 11:43:40;;;;;;;0.75;0.75;;;1.10;93.40;;;;;;5032140;28;20674;-68
2023/02/26 11:46:08;;;;;;;0.45;0.45;;;1.00;92.60;;;;;;5027985;28;20332;-70
2023/02/26 11:48:44;;;;;;;1.30;1.30;;;0.80;92.60;;;;;;5028207;28;20233;-68
2023/02/26 11:51:15;;;;;;;2.35;1.05;;;0.80;93.30;;;;;;5028515;28;20224;-68
2023/02/26 11:53:49;;;;;;;0.50;0.50;;;0.80;93.10;;;;;;5028422;28;20203;-68
2023/02/26 11:56:34;;;;;;;0.30;0.30;;;1.00;93.40;;;;;;5028203;28;20235;-69
2023/02/26 11:59:07;;;;;;;2.25;1.15;;;1.00;93.10;;;;;;5051702;28;20288;-70
2023/02/26 12:01:38;;;;;;;0.38;0.38;;;1.00;92.60;;;;;;5034031;28;20253;-69
2023/02/26 12:04:18;;;;;;;1.90;1.77;;;1.10;92.40;;;;;;5038256;28;20208;-70
2023/02/26 12:06:58;;;;;;;0.98;0.98;;;1.10;92.60;;;;;;5047719;28;20224;-68
2023/02/26 12:09:27;;;;;;;0.40;0.40;;;1.20;93.30;;;;;;5046409;28;20204;-69
2023/02/26 12:12:21;;;;;;;0.70;0.60;;;1.20;92.50;;;;;;5029156;28;20232;-67
2023/02/26 12:15:00;;;;;;;0.30;0.20;;;1.20;92.10;;;;;;5011834;28;20215;-68
2023/02/26 12:17:53;;;;;;;0.90;0.90;;;0.90;93.20;;;;;;5026420;28;20820;-67
2023/02/26 12:20:33;;;;;;;0.65;0.47;;;1.00;93.50;;;;;;5027469;28;20621;-68
2023/02/26 12:23:17;;;;;;;0.60;0.60;;;1.00;93.90;;;;;;5028001;28;20236;-67
2023/02/26 12:26:13;;;;;;;0.30;0.20;;;1.10;94.30;;;;;;5031361;28;20314;-67
2023/02/26 12:29:15;;;;;;;0.50;0.50;;;1.30;93.60;;;;;;5038543;28;20842;-68
2023/02/26 12:32:06;;;;;;;0.63;0.55;;;1.30;93.60;;;;;;5013915;28;20242;-69
2023/02/26 12:35:20;;;;;;;0.40;0.40;;;1.30;93.20;;;;;;5029951;28;20208;-68
2023/02/26 12:37:58;;;;;;;3.22;1.00;;;1.30;93.10;;;;;;4990666;28;20232;-67
2023/02/26 12:41:18;;;;;;;0.80;0.80;;;1.10;92.80;;;;;;5046133;28;20215;-68
2023/02/26 12:43:48;;;;;;;0.30;0.20;;;1.10;93.10;;;;;;5028150;28;20193;-67
2023/02/26 12:46:42;;;;;;;0.30;0.30;;;1.00;93.30;;;;;;5027202;28;20972;-67
2023/02/26 12:49:27;;;;;;;1.67;1.15;;;1.20;97.00;;;;;;5030664;28;20198;-69
2023/02/26 12:52:11;;;;;;;0.30;0.30;;;1.20;93.90;;;;;;5045956;28;20234;-66
2023/02/26 12:54:55;;;;;;;0.73;0.73;;;1.20;93.30;;;;;;5047159;28;20705;-67
2023/02/26 12:57:49;;;;;;;1.27;1.17;;;1.30;93.60;;;;;;5041942;28;20227;-67
2023/02/26 13:00:28;;;;;;;0.65;0.65;;;1.40;93.60;;;;;;5026809;28;20805;-67
2023/02/26 13:03:20;;;;;;;0.95;0.60;;;1.50;93.10;;;;;;5033054;28;20203;-68
2023/02/26 13:06:08;;;;;;;0.40;0.40;;;1.70;93.80;;;;;;5036427;28;20694;-68
2023/02/26 13:08:38;;;;;;;1.30;0.80;;;1.70;93.40;;;;;;5043670;28;20753;-67
2023/02/26 13:11:22;;;;;;;0.60;0.60;;;1.60;92.00;;;;;;5046620;28;20237;-67
2023/02/26 13:14:05;;;;;;;1.35;1.25;;;1.70;91.60;;;;;;5045394;28;20286;-67
2023/02/26 13:16:42;;;;;;;0.65;0.65;;;1.70;92.20;;;;;;5046324;28;20228;-67
2023/02/26 13:19:22;;;;;;;0.50;0.47;;;1.70;92.20;;;;;;5029490;28;20208;-68